Time;durP1;ratioP1;P1;durP2;ratioP2;P2;SDS_P1;SDS_P2;PMS_P1;PMS_P2;Temp;Humidity;BMP_temperature;BMP_pressure;BME280_temperature;BME280_humidity;BME280_pressure;Samples;Min_cycle;Max_cycle;Signal;HPM_P1;HPM_P2
2021/04/28 00:01:13;;;;;;;1999.90;999.90;;;;;;;7.43;43.71;100658.38;15332765;28;20055;-61
2021/04/28 00:08:44;;;;;;;1999.90;999.90;;;;;;;7.20;44.69;100645.59;15389171;28;20372;-60
2021/04/28 00:16:19;;;;;;;1999.90;999.90;;;;;;;7.15;44.21;100631.81;15395059;28;20055;-60
2021/04/28 00:23:51;;;;;;;1999.90;999.90;;;;;;;7.20;43.13;100627.00;15387121;28;20076;-61
2021/04/28 00:31:23;;;;;;;1999.90;999.90;;;;;;;7.41;42.94;100624.56;15386814;28;20460;-61
2021/04/28 00:38:55;;;;;;;1999.90;999.90;;;;;;;7.00;44.08;100621.06;15378008;28;20041;-62
2021/04/28 00:46:28;;;;;;;1999.90;999.90;;;;;;;6.78;44.98;100611.56;15367040;28;20057;-62
2021/04/28 00:53:59;;;;;;;1999.90;999.90;;;;;;;6.79;44.88;100610.44;15358999;28;20586;-60
2021/04/28 01:01:32;;;;;;;1999.90;999.90;;;;;;;6.57;45.88;100602.84;15408356;28;20062;-60
2021/04/28 01:09:05;;;;;;;1999.90;999.90;;;;;;;6.45;46.71;100587.84;15357103;29;20064;-59
2021/04/28 01:16:37;;;;;;;1999.90;999.90;;;;;;;6.35;46.71;100584.16;15343858;28;20047;-59
2021/04/28 01:24:12;;;;;;;1999.90;999.90;;;;;;;6.49;46.69;100584.16;15344194;28;20098;-59
2021/04/28 01:31:43;;;;;;;1999.90;999.90;;;;;;;6.36;46.48;100574.72;15356721;28;20055;-60
2021/04/28 01:39:18;;;;;;;1999.90;999.90;;;;;;;6.33;46.27;100567.00;15355932;28;20039;-60
2021/04/28 01:46:53;;;;;;;1999.90;999.90;;;;;;;6.29;45.78;100566.00;15381238;28;20105;-60
2021/04/28 01:54:27;;;;;;;1999.90;999.90;;;;;;;6.32;47.05;100568.13;15369371;28;20050;-60
2021/04/28 02:01:59;;;;;;;1999.90;999.90;;;;;;;6.06;47.45;100559.53;15363284;28;20105;-60
2021/04/28 02:09:37;;;;;;;1999.90;999.90;;;;;;;6.03;47.02;100546.28;15355818;28;20059;-61
2021/04/28 02:17:13;;;;;;;1999.90;999.90;;;;;;;5.99;46.89;100555.50;15379356;28;20054;-60
2021/04/28 02:24:48;;;;;;;1999.90;999.90;;;;;;;5.98;48.31;100540.03;15412778;28;20046;-61
2021/04/28 02:32:29;;;;;;;1999.90;999.90;;;;;;;5.62;47.60;100529.56;15371753;28;20035;-61
2021/04/28 02:40:19;;;;;;;1999.90;999.90;;;;;;;5.78;48.01;100528.16;15412900;28;20170;-60
2021/04/28 02:47:54;;;;;;;1999.90;999.90;;;;;;;5.58;47.92;100517.47;15340360;28;20079;-60
2021/04/28 02:55:29;;;;;;;1999.90;999.90;;;;;;;5.63;48.10;100509.09;15373591;23;20043;-61
2021/04/28 03:03:04;;;;;;;1999.90;999.90;;;;;;;5.49;48.68;100503.50;15352617;28;20057;-58
2021/04/28 03:10:39;;;;;;;1999.90;999.90;;;;;;;5.36;48.91;100514.56;15353866;29;20051;-60
2021/04/28 03:18:11;;;;;;;1999.90;999.90;;;;;;;5.32;49.11;100510.75;15293813;29;20110;-61
2021/04/28 03:25:44;;;;;;;1999.90;999.90;;;;;;;5.19;49.36;100506.81;15349815;29;20055;-60
2021/04/28 03:33:17;;;;;;;1999.90;999.90;;;;;;;5.21;49.12;100499.03;15291987;29;20130;-59
2021/04/28 03:41:13;;;;;;;1999.90;999.90;;;;;;;5.07;49.43;100507.28;15309704;29;20043;-58
2021/04/28 03:48:48;;;;;;;1999.90;999.90;;;;;;;5.09;49.44;100501.44;15326670;29;20070;-61
2021/04/28 03:56:20;;;;;;;1999.90;999.90;;;;;;;5.01;49.34;100502.97;15310542;29;20063;-58
2021/04/28 04:03:52;;;;;;;1999.90;999.90;;;;;;;5.08;49.82;100508.91;15364550;29;20051;-59
2021/04/28 04:11:53;;;;;;;1999.90;999.90;;;;;;;5.28;49.77;100505.00;15329261;29;20132;-61
2021/04/28 04:19:34;;;;;;;1999.90;999.90;;;;;;;5.11;50.24;100516.63;15350312;28;20147;-60
2021/04/28 04:27:22;;;;;;;1999.90;999.90;;;;;;;5.14;49.72;100513.25;15377120;28;20465;-61
2021/04/28 04:35:01;;;;;;;1999.90;999.90;;;;;;;5.22;49.89;100506.22;15364438;29;20424;-58
2021/04/28 04:42:57;;;;;;;1999.90;999.90;;;;;;;5.44;49.46;100505.56;15325125;29;20067;-59
2021/04/28 04:50:51;;;;;;;1999.90;999.90;;;;;;;5.46;48.84;100512.44;15304512;28;20043;-56
2021/04/28 04:58:24;;;;;;;1999.90;999.90;;;;;;;5.78;48.61;100517.09;15358133;28;20501;-58
2021/04/28 05:05:55;;;;;;;1999.90;999.90;;;;;;;5.96;48.20;100514.59;15308459;29;20047;-58
2021/04/28 05:13:28;;;;;;;1999.90;999.90;;;;;;;6.51;47.98;100509.81;15338900;29;20132;-57
2021/04/28 05:20:59;;;;;;;1999.90;999.90;;;;;;;6.93;47.22;100504.97;15338838;29;20075;-60
2021/04/28 05:28:32;;;;;;;1999.90;999.90;;;;;;;7.56;46.94;100505.91;15324067;29;20078;-58
2021/04/28 05:36:04;;;;;;;1999.90;999.90;;;;;;;8.19;43.62;100516.66;15329024;29;20043;-55
2021/04/28 05:43:38;;;;;;;1999.90;999.90;;;;;;;8.75;42.37;100516.97;15343002;29;20047;-56
2021/04/28 05:51:09;;;;;;;1999.90;999.90;;;;;;;9.45;41.28;100513.84;15357927;29;20070;-61
2021/04/28 05:58:42;;;;;;;1999.90;999.90;;;;;;;9.94;40.67;100507.97;15372899;29;20051;-58
2021/04/28 06:06:13;;;;;;;1999.90;999.90;;;;;;;8.97;42.43;100516.84;15355370;29;20053;-60
2021/04/28 06:13:47;;;;;;;1999.90;999.90;;;;;;;10.11;40.97;100510.72;15353253;28;20472;-60
2021/04/28 06:21:19;;;;;;;1999.90;999.90;;;;;;;10.77;39.60;100508.22;15372027;29;20365;-59
2021/04/28 06:28:51;;;;;;;1999.90;999.90;;;;;;;11.49;38.09;100504.13;15371253;29;20484;-58
2021/04/28 06:36:23;;;;;;;1999.90;999.90;;;;;;;11.32;37.81;100501.50;15353541;29;20457;-59
2021/04/28 06:43:57;;;;;;;1999.90;999.90;;;;;;;11.45;37.85;100503.19;15352961;29;20063;-60
2021/04/28 06:51:28;;;;;;;1999.90;999.90;;;;;;;12.08;37.15;100498.22;15352389;28;20091;-58
2021/04/28 06:59:01;;;;;;;1999.90;999.90;;;;;;;13.75;35.13;100496.88;15370792;29;20059;-58
2021/04/28 07:06:32;;;;;;;1999.90;999.90;;;;;;;14.14;34.11;100497.91;15366188;28;20039;-54
2021/04/28 07:14:05;;;;;;;1999.90;999.90;;;;;;;15.21;32.30;100482.69;15350658;28;20166;-56
2021/04/28 07:21:37;;;;;;;1999.90;999.90;;;;;;;13.15;35.62;100470.78;15350142;28;20098;-59
2021/04/28 07:29:09;;;;;;;1999.90;999.90;;;;;;;13.04;35.98;100466.03;15342458;28;20058;-57
2021/04/28 07:36:41;;;;;;;1999.90;999.90;;;;;;;14.02;34.27;100469.94;15326117;28;20051;-58
2021/04/28 07:44:14;;;;;;;1999.90;999.90;;;;;;;14.10;34.62;100468.13;15349524;28;20051;-59
2021/04/28 07:51:46;;;;;;;1999.90;999.90;;;;;;;14.12;36.11;100466.59;15332717;28;20045;-58
2021/04/28 07:59:18;;;;;;;1999.90;999.90;;;;;;;15.61;32.76;100456.19;15356450;28;20058;-57
2021/04/28 08:06:50;;;;;;;1999.90;999.90;;;;;;;16.37;31.49;100451.50;15345789;28;20040;-57
2021/04/28 08:14:22;;;;;;;1999.90;999.90;;;;;;;16.74;31.33;100443.19;15317071;28;20051;-57
2021/04/28 08:21:54;;;;;;;1999.90;999.90;;;;;;;17.00;32.26;100450.81;15349738;28;20657;-58
2021/04/28 08:29:26;;;;;;;1999.90;999.90;;;;;;;17.47;30.43;100446.50;15333830;28;20043;-56
2021/04/28 08:36:58;;;;;;;1999.90;999.90;;;;;;;18.83;27.96;100442.84;15340757;28;20563;-57
2021/04/28 08:44:30;;;;;;;1999.90;999.90;;;;;;;18.55;29.63;100426.47;15363894;28;20058;-59
2021/04/28 08:52:04;;;;;;;1999.90;999.90;;;;;;;18.38;28.87;100428.81;15316409;29;20558;-55
2021/04/28 08:59:37;;;;;;;1999.90;999.90;;;;;;;19.06;27.48;100429.22;15314737;29;20054;-58
2021/04/28 09:07:09;;;;;;;1999.90;999.90;;;;;;;18.99;28.78;100427.19;15314203;29;20060;-60
2021/04/28 09:14:46;;;;;;;1999.90;999.90;;;;;;;19.11;28.81;100420.34;15297384;29;20047;-60
2021/04/28 09:22:20;;;;;;;1999.90;999.90;;;;;;;20.06;27.31;100416.09;15280933;29;20078;-60
2021/04/28 09:30:23;;;;;;;1999.90;999.90;;;;;;;20.11;28.49;100403.53;15315499;29;20466;-57
2021/04/28 09:37:56;;;;;;;1999.90;999.90;;;;;;;19.16;27.42;100396.53;15279664;29;20044;-58
2021/04/28 09:45:40;;;;;;;1999.90;999.90;;;;;;;21.50;25.21;100398.28;15279188;29;20047;-60
2021/04/28 09:53:22;;;;;;;1999.90;999.90;;;;;;;20.59;26.51;100392.56;15315949;29;20147;-57
2021/04/28 10:00:59;;;;;;;1999.90;999.90;;;;;;;21.61;27.40;100376.28;15354009;28;20047;-57
2021/04/28 10:08:31;;;;;;;1999.90;999.90;;;;;;;21.66;24.81;100382.75;15367805;28;20055;-56
2021/04/28 10:16:04;;;;;;;1999.90;999.90;;;;;;;22.18;24.33;100375.03;15385904;28;20137;-58
2021/04/28 10:23:35;;;;;;;1999.90;999.90;;;;;;;22.64;25.41;100365.22;15416063;28;20051;-63
2021/04/28 10:31:08;;;;;;;1999.90;999.90;;;;;;;22.65;25.21;100353.41;15433025;28;20612;-58
2021/04/28 10:38:40;;;;;;;;;;;;;;;23.38;24.17;100356.94;15399367;28;20158;-62
2021/04/28 10:46:20;;;;;;;1999.90;999.90;;;;;;;23.18;23.45;100349.09;15373370;28;19949;-57
2021/04/28 10:54:21;;;;;;;1999.90;999.90;;;;;;;24.26;23.24;100345.31;15338634;28;20123;-57
2021/04/28 11:02:08;;;;;;;1999.90;999.90;;;;;;;24.34;22.41;100335.44;15311287;29;20055;-57
2021/04/28 11:09:39;;;;;;;1999.90;999.90;;;;;;;22.60;24.37;100333.97;15324909;29;20048;-61
2021/04/28 11:17:29;;;;;;;1999.90;999.90;;;;;;;23.43;24.26;100328.78;15369064;28;20062;-57
2021/04/28 11:25:06;;;;;;;1999.90;999.90;;;;;;;23.66;23.45;100316.69;15351216;28;20071;-57
2021/04/28 11:32:39;;;;;;;1999.90;999.90;;;;;;;23.64;25.73;100315.47;15369415;28;20050;-56
2021/04/28 11:40:11;;;;;;;1999.90;999.90;;;;;;;24.61;22.98;100295.38;15351080;29;20043;-56
2021/04/28 11:47:44;;;;;;;1999.90;999.90;;;;;;;24.81;23.40;100304.72;15368390;28;20075;-56
2021/04/28 11:55:16;;;;;;;1999.90;999.90;;;;;;;24.98;23.20;100299.84;15404514;28;20469;-58
2021/04/28 12:03:01;;;;;;;1999.90;999.90;;;;;;;23.93;24.72;100288.09;15409912;28;20221;-57
2021/04/28 12:10:36;;;;;;;1999.90;999.90;;;;;;;24.05;23.80;100284.63;15373669;28;20051;-56
2021/04/28 12:18:08;;;;;;;1999.90;999.90;;;;;;;25.49;22.57;100275.44;15331832;29;20163;-53
2021/04/28 12:25:40;;;;;;;1999.90;999.90;;;;;;;25.65;22.54;100263.22;15334305;28;20052;-54
2021/04/28 12:33:14;;;;;;;1999.90;999.90;;;;;;;28.19;19.49;100266.44;15353212;28;20560;-53
2021/04/28 12:40:47;;;;;;;1999.90;999.90;;;;;;;28.69;18.96;100261.75;15344040;28;20126;-59
2021/04/28 12:48:22;;;;;;;1999.90;999.90;;;;;;;27.03;20.75;100263.44;15378739;29;20118;-55
2021/04/28 12:55:56;;;;;;;1999.90;999.90;;;;;;;24.91;23.43;100249.47;15379395;28;20050;-55
2021/04/28 13:03:30;;;;;;;1999.90;999.90;;;;;;;28.64;18.25;100242.25;15379935;28;20052;-59
2021/04/28 13:11:17;;;;;;;1999.90;999.90;;;;;;;30.02;17.06;100249.31;15369361;29;20133;-55
2021/04/28 13:18:51;;;;;;;1999.90;999.90;;;;;;;31.79;17.17;100236.38;15326179;29;20135;-57
2021/04/28 13:26:23;;;;;;;1999.90;999.90;;;;;;;31.64;17.05;100234.69;15339593;28;20065;-57
2021/04/28 13:33:57;;;;;;;1999.90;999.90;;;;;;;31.31;15.64;100230.53;15298969;29;20054;-57
2021/04/28 13:41:28;;;;;;;1999.90;999.90;;;;;;;24.13;23.48;100202.66;15296883;29;20116;-60
2021/04/28 13:49:01;;;;;;;1999.90;999.90;;;;;;;22.76;25.30;100191.97;15337841;28;20414;-57
2021/04/28 13:56:33;;;;;;;1999.90;999.90;;;;;;;22.06;25.01;100190.88;15333177;28;20157;-62
2021/04/28 14:04:06;;;;;;;1999.90;999.90;;;;;;;21.35;25.29;100183.91;15364136;28;20051;-61
2021/04/28 14:11:42;;;;;;;1999.90;999.90;;;;;;;21.54;26.64;100166.28;15343713;28;20101;-59
2021/04/28 14:19:14;;;;;;;1999.90;999.90;;;;;;;22.13;26.45;100156.72;15369692;28;20392;-59
2021/04/28 14:26:46;;;;;;;1999.90;999.90;;;;;;;21.12;27.15;100144.75;15368906;28;20090;-59
2021/04/28 14:34:18;;;;;;;1999.90;999.90;;;;;;;21.23;28.16;100136.16;15367162;28;20047;-58
2021/04/28 14:41:50;;;;;;;1999.90;999.90;;;;;;;21.37;27.40;100143.78;15363965;28;20070;-61
2021/04/28 14:49:23;;;;;;;1999.90;999.90;;;;;;;21.16;26.61;100130.56;15379804;28;20186;-56
2021/04/28 14:56:54;;;;;;;1999.90;999.90;;;;;;;21.07;27.43;100116.88;15327278;23;20135;-77
2021/04/28 15:04:27;;;;;;;1999.90;999.90;;;;;;;20.72;27.80;100115.13;15301296;29;20040;-78
2021/04/28 15:11:58;;;;;;;1999.90;999.90;;;;;;;20.25;28.42;100103.28;15398608;23;20566;-64
2021/04/28 15:19:32;;;;;;;1999.90;999.90;;;;;;;20.02;29.10;100100.97;15384312;23;20604;-58
2021/04/28 15:27:03;;;;;;;1999.90;999.90;;;;;;;20.12;29.21;100085.16;15263919;29;20051;-60
2021/04/28 15:34:36;;;;;;;1999.90;999.90;;;;;;;20.15;29.00;100075.81;15312136;29;20361;-60
2021/04/28 15:42:08;;;;;;;1999.90;999.90;;;;;;;20.35;28.23;100084.59;15312575;29;20040;-59
2021/04/28 15:49:40;;;;;;;1999.90;999.90;;;;;;;19.68;29.71;100080.06;15307592;29;20485;-61
2021/04/28 15:57:12;;;;;;;1999.90;999.90;;;;;;;19.82;29.16;100075.19;15274213;29;20051;-62
2021/04/28 16:04:44;;;;;;;1999.90;999.90;;;;;;;20.07;29.66;100063.72;15307357;29;20047;-61
2021/04/28 16:12:16;;;;;;;1999.90;999.90;;;;;;;19.80;29.36;100049.31;15304987;29;20130;-59
2021/04/28 16:19:48;;;;;;;1999.90;999.90;;;;;;;19.96;30.04;100048.00;15263797;29;20412;-59
2021/04/28 16:27:20;;;;;;;1999.90;999.90;;;;;;;20.03;29.30;100037.44;15276893;29;20421;-61
2021/04/28 16:34:52;;;;;;;1999.90;999.90;;;;;;;20.08;29.62;100036.19;15283492;29;20637;-60
2021/04/28 16:42:24;;;;;;;1999.90;999.90;;;;;;;19.75;30.03;100029.13;15302764;29;20338;-62
2021/04/28 16:49:57;;;;;;;1999.90;999.90;;;;;;;19.49;30.45;100030.41;15304250;29;20043;-62
2021/04/28 16:57:29;;;;;;;1999.90;999.90;;;;;;;19.86;30.19;100025.00;15249209;29;20059;-62
2021/04/28 17:05:01;;;;;;;1999.90;999.90;;;;;;;19.28;31.24;100025.66;15290727;29;20051;-61
2021/04/28 17:12:33;;;;;;;1999.90;999.90;;;;;;;19.16;31.64;100024.03;15316031;29;20110;-61
2021/04/28 17:20:06;;;;;;;1999.90;999.90;;;;;;;19.15;32.68;100013.94;15304659;29;20446;-60
2021/04/28 17:27:38;;;;;;;1999.90;999.90;;;;;;;18.92;32.29;100007.94;15253766;29;20054;-60
2021/04/28 17:35:12;;;;;;;1999.90;999.90;;;;;;;18.36;33.27;100001.13;15247800;29;20048;-61
2021/04/28 17:42:44;;;;;;;1999.90;999.90;;;;;;;18.07;33.82;100000.28;15292363;29;20044;-61
2021/04/28 17:50:17;;;;;;;1999.90;999.90;;;;;;;18.18;33.77;100013.19;15242282;29;20048;-59
2021/04/28 17:57:49;;;;;;;1999.90;999.90;;;;;;;17.83;35.68;100019.59;15288403;29;20473;-57
2021/04/28 18:05:21;;;;;;;1999.90;999.90;;;;;;;17.56;35.60;100030.34;15255609;29;20158;-61
2021/04/28 18:12:53;;;;;;;1999.90;999.90;;;;;;;17.35;36.93;100032.25;15278797;29;20055;-59
2021/04/28 18:20:26;;;;;;;1999.90;999.90;;;;;;;17.41;38.38;100034.31;15299573;29;20047;-62
2021/04/28 18:27:57;;;;;;;1999.90;999.90;;;;;;;17.13;38.80;100045.44;15277799;29;20059;-63
2021/04/28 18:35:30;;;;;;;1999.90;999.90;;;;;;;16.83;39.13;100046.44;15275217;29;20099;-60
2021/04/28 18:43:01;;;;;;;1999.90;999.90;;;;;;;16.43;40.00;100061.38;15306497;29;20047;-61
2021/04/28 18:50:33;;;;;;;1999.90;999.90;;;;;;;16.31;38.41;100064.50;15262809;29;20040;-59
2021/04/28 18:58:05;;;;;;;1999.90;999.90;;;;;;;16.08;38.57;100061.84;15286927;29;20071;-56
2021/04/28 19:05:37;;;;;;;1999.90;999.90;;;;;;;15.96;38.08;100057.31;15306618;29;20059;-62
2021/04/28 19:13:09;;;;;;;1999.90;999.90;;;;;;;15.83;38.59;100067.19;15296994;29;20076;-61
2021/04/28 19:20:42;;;;;;;1999.90;999.90;;;;;;;15.67;39.35;100058.16;15307594;29;20078;-62
2021/04/28 19:28:13;;;;;;;1999.90;999.90;;;;;;;15.47;39.16;100043.44;15283261;29;20107;-59
2021/04/28 19:35:46;;;;;;;1999.90;999.90;;;;;;;15.30;39.41;100034.38;15294432;29;20221;-62
2021/04/28 19:43:17;;;;;;;1999.90;999.90;;;;;;;15.10;39.72;100026.47;15280358;29;20071;-62
2021/04/28 19:50:50;;;;;;;1999.90;999.90;;;;;;;15.04;39.69;100003.53;15292232;29;20071;-58
2021/04/28 19:58:22;;;;;;;1999.90;999.90;;;;;;;14.89;40.39;99990.44;15253173;29;20055;-58
2021/04/28 20:05:54;;;;;;;1999.90;999.90;;;;;;;14.77;40.78;99985.06;15259657;29;20514;-61
2021/04/28 20:13:26;;;;;;;1999.90;999.90;;;;;;;14.59;41.24;99981.97;15302551;29;20036;-62
2021/04/28 20:20:58;;;;;;;1999.90;999.90;;;;;;;14.51;41.39;99971.84;15267709;29;20145;-59
2021/04/28 20:28:30;;;;;;;1999.90;999.90;;;;;;;14.33;41.99;99963.94;15269646;29;20116;-61
2021/04/28 20:36:02;;;;;;;1999.90;999.90;;;;;;;14.35;42.31;99967.16;15268201;29;20059;-62
2021/04/28 20:43:34;;;;;;;1999.90;999.90;;;;;;;14.22;42.49;99951.72;15275869;29;20044;-62
2021/04/28 20:51:07;;;;;;;1999.90;999.90;;;;;;;14.08;43.22;99951.50;15284076;29;20159;-62
2021/04/28 20:58:39;;;;;;;1999.90;999.90;;;;;;;13.93;43.81;99952.41;15290176;29;20062;-59
2021/04/28 21:06:14;;;;;;;1999.90;999.90;;;;;;;13.75;44.34;99955.72;15247845;29;20059;-60
2021/04/28 21:13:46;;;;;;;1999.90;999.90;;;;;;;13.41;45.14;99945.47;15287725;29;20520;-60
2021/04/28 21:21:18;;;;;;;1999.90;999.90;;;;;;;13.28;45.69;99950.41;15313394;23;20138;-57
2021/04/28 21:28:51;;;;;;;1999.90;999.90;;;;;;;13.41;45.80;99939.84;15431872;28;20050;-57
2021/04/28 21:36:23;;;;;;;1999.90;999.90;;;;;;;13.42;46.83;99933.06;15367677;28;20063;-57
2021/04/28 21:43:55;;;;;;;1999.90;999.90;;;;;;;13.39;45.91;99928.22;15346315;28;20043;-55
2021/04/28 21:51:27;;;;;;;1999.90;999.90;;;;;;;13.29;46.58;99921.22;15315722;29;20115;-57
2021/04/28 21:58:59;;;;;;;1999.90;999.90;;;;;;;13.36;46.33;99912.97;15348280;29;20577;-59
2021/04/28 22:06:31;;;;;;;1999.90;999.90;;;;;;;13.21;47.21;99909.06;15359090;29;20059;-57
2021/04/28 22:14:04;;;;;;;1999.90;999.90;;;;;;;13.11;47.24;99897.59;15350917;29;20399;-59
2021/04/28 22:21:36;;;;;;;1999.90;999.90;;;;;;;13.14;47.45;99880.91;15340179;29;20039;-55
2021/04/28 22:29:08;;;;;;;1999.90;999.90;;;;;;;13.07;47.60;99869.53;15353661;29;20047;-56
2021/04/28 22:36:40;;;;;;;1999.90;999.90;;;;;;;13.06;47.69;99862.31;15335755;29;20044;-57
2021/04/28 22:44:12;;;;;;;1999.90;999.90;;;;;;;13.27;47.29;99859.16;15341747;29;20047;-53
2021/04/28 22:51:44;;;;;;;1999.90;999.90;;;;;;;13.17;47.89;99856.94;15343909;29;20036;-53
2021/04/28 22:59:16;;;;;;;1999.90;999.90;;;;;;;12.97;48.09;99842.13;15306041;29;20421;-57
2021/04/28 23:06:48;;;;;;;1999.90;999.90;;;;;;;12.89;48.30;99843.97;15327714;29;20051;-57
2021/04/28 23:14:20;;;;;;;1999.90;999.90;;;;;;;13.05;47.86;99848.69;15353643;29;20051;-56
2021/04/28 23:21:52;;;;;;;1999.90;999.90;;;;;;;12.99;48.12;99843.38;15312459;29;20051;-54
2021/04/28 23:29:24;;;;;;;1999.90;999.90;;;;;;;12.96;47.89;99840.53;15347403;29;20054;-55
2021/04/28 23:36:57;;;;;;;1999.90;999.90;;;;;;;13.01;48.20;99834.59;15315097;29;20150;-56
2021/04/28 23:44:29;;;;;;;1999.90;999.90;;;;;;;13.03;49.05;99828.66;15329375;29;20131;-56
2021/04/28 23:52:02;;;;;;;1999.90;999.90;;;;;;;12.70;49.02;99827.19;15342120;29;20047;-56
2021/04/28 23:59:36;;;;;;;1999.90;999.90;;;;;;;12.77;49.42;99818.13;15313849;29;20114;-55
